createdAt,value
2018-11-23T00:02:17.743Z,50.67
2018-11-23T00:04:51.663Z,46.37
2018-11-23T00:07:26.043Z,52.10
2018-11-23T00:09:59.599Z,46.70
2018-11-23T00:12:33.439Z,50.23
2018-11-23T00:15:09.019Z,44.63
2018-11-23T00:17:42.847Z,47.80
2018-11-23T00:20:20.366Z,51.27
2018-11-23T00:22:54.318Z,47.33
2018-11-23T00:25:28.138Z,46.13
2018-11-23T00:28:02.501Z,52.27
2018-11-23T00:30:36.122Z,47.63
2018-11-23T00:33:10.098Z,45.33
2018-11-23T00:35:44.019Z,50.50
2018-11-23T00:38:18.791Z,48.53
2018-11-23T00:40:53.380Z,53.00
2018-11-23T00:43:27.025Z,53.20
2018-11-23T00:46:00.849Z,49.97
2018-11-23T00:48:34.523Z,57.10
2018-11-23T00:51:08.162Z,46.73
2018-11-23T00:53:42.165Z,55.57
2018-11-23T00:56:15.854Z,51.03
2018-11-23T00:58:49.982Z,50.37
2018-11-23T01:01:23.617Z,50.73
2018-11-23T01:03:57.448Z,49.77
2018-11-23T01:06:31.150Z,47.03
2018-11-23T01:09:07.856Z,46.97
2018-11-23T01:11:42.514Z,54.60
2018-11-23T01:14:16.062Z,54.53
2018-11-23T01:16:49.585Z,46.83
2018-11-23T01:19:23.938Z,45.37
2018-11-23T01:21:58.022Z,46.57
2018-11-23T01:24:31.430Z,56.70
2018-11-23T01:27:05.334Z,48.23
2018-11-23T01:29:39.707Z,53.40
2018-11-23T01:32:13.519Z,56.33
2018-11-23T01:34:47.175Z,53.67
2018-11-23T01:37:21.105Z,56.00
2018-11-23T01:39:54.662Z,58.97
2018-11-23T01:42:28.666Z,47.13
2018-11-23T01:45:02.355Z,54.77
2018-11-23T01:47:35.968Z,51.13
2018-11-23T01:50:14.821Z,57.87
2018-11-23T01:52:48.966Z,50.50
2018-11-23T01:55:23.945Z,55.47
2018-11-23T01:57:58.016Z,55.63
2018-11-23T02:00:31.518Z,56.90
2018-11-23T02:03:05.043Z,51.73
2018-11-23T02:05:38.680Z,54.70
2018-11-23T02:08:12.652Z,53.43
2018-11-23T02:10:46.220Z,53.50
2018-11-23T02:13:20.147Z,55.40
2018-11-23T02:15:53.742Z,55.63
2018-11-23T02:18:27.585Z,54.83
2018-11-23T02:21:01.152Z,56.67
2018-11-23T02:23:34.735Z,55.23
2018-11-23T02:26:08.495Z,52.40
2018-11-23T02:28:42.201Z,62.00
2018-11-23T02:31:15.968Z,60.83
2018-11-23T02:33:49.666Z,57.83
2018-11-23T02:36:23.559Z,58.93
2018-11-23T02:38:57.180Z,57.63
2018-11-23T02:41:31.223Z,58.37
2018-11-23T02:44:04.910Z,61.40
2018-11-23T02:46:38.494Z,54.90
2018-11-23T02:49:12.251Z,58.27
2018-11-23T02:51:45.830Z,51.77
2018-11-23T02:54:19.512Z,59.30
2018-11-23T02:56:53.485Z,57.03
2018-11-23T02:59:26.957Z,61.47
2018-11-23T03:02:00.617Z,62.70
2018-11-23T03:04:34.174Z,57.47
2018-11-23T03:07:08.289Z,67.37
2018-11-23T03:09:41.958Z,63.93
2018-11-23T03:12:15.613Z,58.10
2018-11-23T03:14:49.426Z,65.40
2018-11-23T03:17:23.769Z,61.30
2018-11-23T03:19:57.461Z,57.83
2018-11-23T03:22:31.148Z,64.63
2018-11-23T03:25:05.788Z,69.53
2018-11-23T03:27:39.473Z,70.70
2018-11-23T03:30:15.579Z,70.13
2018-11-23T03:32:49.852Z,62.27
2018-11-23T03:35:23.915Z,55.13
2018-11-23T03:37:58.007Z,68.57
2018-11-23T03:40:31.543Z,61.20
2018-11-23T03:43:05.876Z,63.63
2018-11-23T03:45:40.529Z,61.80
2018-11-23T03:48:14.485Z,63.90
2018-11-23T03:50:49.210Z,63.00
2018-11-23T03:53:23.355Z,64.30
2018-11-23T03:55:57.279Z,71.97
2018-11-23T03:58:30.848Z,61.20
2018-11-23T04:01:04.866Z,60.47
2018-11-23T04:03:39.657Z,59.17
2018-11-23T04:06:14.498Z,61.03
2018-11-23T04:08:49.090Z,67.40
2018-11-23T04:11:23.675Z,62.80
2018-11-23T04:13:57.307Z,63.13
2018-11-23T04:16:30.855Z,68.47
2018-11-23T04:19:04.749Z,66.70
2018-11-23T04:21:39.194Z,67.27
2018-11-23T04:24:12.878Z,60.80
2018-11-23T04:26:46.655Z,55.87
2018-11-23T04:29:20.342Z,62.13
2018-11-23T04:31:54.218Z,66.33
2018-11-23T04:34:27.844Z,64.30
2018-11-23T04:37:01.379Z,71.40
2018-11-23T04:39:35.108Z,64.03
2018-11-23T04:42:08.771Z,57.40
2018-11-23T04:44:42.602Z,68.10
2018-11-23T04:47:16.152Z,63.83
2018-11-23T04:49:49.744Z,58.67
2018-11-23T04:52:23.475Z,63.13
2018-11-23T04:54:57.495Z,63.57
2018-11-23T04:57:31.090Z,70.10
2018-11-23T05:00:07.341Z,61.40
2018-11-23T05:02:42.078Z,58.80
2018-11-23T05:05:15.953Z,64.83
2018-11-23T05:07:49.558Z,59.40
2018-11-23T05:10:23.447Z,59.07
2018-11-23T05:12:57.290Z,66.63
2018-11-23T05:15:31.215Z,53.90
2018-11-23T05:18:04.950Z,63.60
2018-11-23T05:20:38.908Z,58.00
2018-11-23T05:23:13.805Z,63.40
2018-11-23T05:25:48.511Z,56.20
2018-11-23T05:28:22.486Z,65.43
2018-11-23T05:30:57.156Z,50.70
2018-11-23T05:33:31.399Z,55.40
2018-11-23T05:36:05.303Z,67.23
2018-11-23T05:38:38.876Z,60.63
2018-11-23T05:41:12.630Z,56.43
2018-11-23T05:43:46.100Z,57.00
2018-11-23T05:46:20.147Z,58.60
2018-11-23T05:48:53.706Z,56.23
2018-11-23T05:51:27.349Z,60.80
2018-11-23T05:54:01.056Z,53.53
2018-11-23T05:56:34.683Z,62.20
2018-11-23T05:59:08.479Z,56.00
2018-11-23T06:01:42.191Z,52.07
2018-11-23T06:04:16.038Z,61.93
2018-11-23T06:06:49.738Z,63.37
2018-11-23T06:09:23.538Z,65.97
2018-11-23T06:11:57.461Z,63.13
2018-11-23T06:14:31.033Z,62.30
2018-11-23T06:17:11.617Z,64.10
2018-11-23T06:19:45.754Z,57.07
2018-11-23T06:22:20.182Z,62.10
2018-11-23T06:24:53.740Z,57.67
2018-11-23T06:27:27.431Z,59.30
2018-11-23T06:30:01.279Z,65.27
2018-11-23T06:32:47.310Z,56.60
2018-11-23T06:35:21.217Z,68.97
2018-11-23T06:37:54.962Z,61.33
2018-11-23T06:40:28.535Z,62.70
2018-11-23T06:43:02.126Z,79.00
2018-11-23T06:45:38.448Z,59.77
2018-11-23T06:48:12.646Z,58.37
2018-11-23T06:50:46.218Z,56.43
2018-11-23T06:53:19.933Z,58.63
2018-11-23T06:55:54.020Z,56.57
2018-11-23T06:58:28.209Z,53.83
2018-11-23T07:01:01.931Z,53.53
2018-11-23T07:03:35.976Z,55.37
2018-11-23T07:06:10.047Z,51.93
2018-11-23T07:08:43.821Z,72.97
2018-11-23T07:11:17.993Z,63.03
2018-11-23T07:13:51.680Z,66.43
2018-11-23T07:16:25.450Z,61.37
2018-11-23T07:18:59.517Z,65.43
2018-11-23T07:21:33.207Z,65.40
2018-11-23T07:24:06.922Z,69.90
2018-11-23T07:26:40.853Z,71.77
2018-11-23T07:29:14.565Z,60.23
2018-11-23T07:31:48.378Z,64.10
2018-11-23T07:34:22.911Z,70.80
2018-11-23T07:36:56.549Z,75.83
2018-11-23T07:39:42.496Z,76.80
2018-11-23T07:42:21.160Z,73.27
2018-11-23T07:44:55.491Z,64.47
2018-11-23T07:47:29.998Z,71.37
2018-11-23T07:50:05.549Z,70.40
2018-11-23T07:52:39.340Z,62.07
2018-11-23T07:55:13.105Z,61.27
2018-11-23T07:57:46.959Z,66.20
2018-11-23T08:00:22.400Z,69.63
2018-11-23T08:02:56.760Z,69.33
2018-11-23T08:05:30.595Z,63.13
2018-11-23T08:08:04.921Z,78.47
2018-11-23T08:10:38.797Z,70.27
2018-11-23T08:13:12.627Z,73.07
2018-11-23T08:15:46.118Z,74.77
2018-11-23T08:18:19.826Z,81.63
2018-11-23T08:20:53.766Z,80.57
2018-11-23T08:23:27.310Z,74.03
2018-11-23T08:26:01.026Z,73.10
2018-11-23T08:28:35.349Z,77.93
2018-11-23T08:31:09.165Z,78.00
2018-11-23T08:33:42.777Z,75.23
2018-11-23T08:36:16.598Z,77.93
2018-11-23T08:38:50.610Z,75.33
2018-11-23T08:41:24.991Z,74.37
2018-11-23T08:43:58.907Z,72.60
2018-11-23T08:46:32.618Z,80.53
2018-11-23T08:49:06.253Z,81.67
2018-11-23T08:51:40.050Z,71.30
2018-11-23T08:54:13.726Z,67.73
2018-11-23T08:56:48.192Z,78.27
2018-11-23T08:59:22.023Z,71.50
2018-11-23T09:01:55.669Z,79.00
2018-11-23T09:04:29.660Z,82.07
2018-11-23T09:07:03.100Z,70.47
2018-11-23T09:09:36.878Z,75.27
2018-11-23T09:12:10.578Z,75.63
2018-11-23T09:14:44.243Z,70.97
2018-11-23T09:17:18.244Z,66.60
2018-11-23T09:19:51.892Z,75.87
2018-11-23T09:22:25.427Z,76.73
2018-11-23T09:24:59.143Z,70.60
2018-11-23T09:27:32.934Z,68.63
2018-11-23T09:30:12.214Z,66.97
2018-11-23T09:32:46.959Z,72.70
2018-11-23T09:35:21.290Z,71.87
2018-11-23T09:37:54.977Z,69.17
2018-11-23T09:40:30.011Z,67.70
2018-11-23T09:43:04.463Z,68.07
2018-11-23T09:45:38.745Z,77.73
2018-11-23T09:48:12.344Z,69.40
2018-11-23T09:50:46.087Z,60.07
2018-11-23T09:53:19.722Z,68.93
2018-11-23T09:55:53.654Z,79.67
2018-11-23T09:58:27.305Z,81.63
2018-11-23T10:01:01.300Z,73.33
2018-11-23T10:03:34.771Z,68.13
2018-11-23T13:15:28.326Z,46.63
2018-11-23T13:18:02.064Z,45.17
2018-11-23T13:20:35.930Z,51.23
2018-11-23T13:23:09.645Z,45.57
2018-11-23T13:25:44.043Z,51.03
2018-11-23T13:28:18.469Z,49.73
2018-11-23T13:30:52.212Z,45.33
2018-11-23T13:33:27.038Z,52.93
2018-11-23T13:36:01.710Z,49.20
2018-11-23T13:38:36.425Z,47.80
2018-11-23T13:41:10.499Z,46.53
2018-11-23T13:43:45.115Z,47.67
2018-11-23T13:46:19.664Z,47.87
2018-11-23T13:48:54.183Z,46.77
2018-11-23T13:51:28.068Z,48.17
2018-11-23T13:54:01.845Z,46.67
2018-11-23T13:56:36.162Z,47.60
2018-11-23T13:59:09.703Z,46.17
2018-11-23T14:01:43.339Z,47.80
2018-11-23T14:04:17.145Z,45.47
2018-11-23T14:06:50.834Z,49.90
2018-11-23T14:09:24.638Z,49.80
2018-11-23T14:11:58.468Z,46.83
2018-11-23T14:14:32.606Z,50.90
2018-11-23T14:17:06.406Z,48.77
2018-11-23T14:19:39.940Z,47.73
2018-11-23T14:22:13.839Z,47.07
2018-11-23T14:24:48.223Z,44.93
2018-11-23T14:27:22.115Z,50.97
2018-11-23T14:29:55.591Z,45.43
2018-11-23T14:32:29.308Z,47.07
2018-11-23T14:35:02.942Z,46.13
2018-11-23T14:37:37.219Z,50.50
2018-11-23T14:40:11.866Z,42.50
2018-11-23T14:42:46.890Z,54.93
2018-11-23T14:45:30.968Z,50.60
2018-11-23T14:48:07.101Z,49.53
2018-11-23T14:50:47.101Z,55.43
2018-11-23T14:53:20.866Z,47.00
2018-11-23T14:55:54.406Z,52.03
2018-11-23T14:58:27.993Z,45.47
2018-11-23T15:01:01.596Z,61.60
2018-11-23T15:03:35.093Z,54.80
2018-11-23T15:06:08.654Z,48.63
2018-11-23T15:08:42.642Z,55.37
2018-11-23T15:11:16.047Z,53.07
2018-11-23T15:13:50.245Z,56.57
2018-11-23T15:16:25.007Z,52.37
2018-11-23T15:18:59.316Z,54.23
2018-11-23T15:21:33.095Z,54.60
2018-11-23T15:24:07.043Z,55.17
2018-11-23T15:26:40.648Z,62.87
2018-11-23T15:29:14.627Z,56.10
2018-11-23T15:31:48.221Z,55.77
2018-11-23T15:34:21.705Z,69.63
2018-11-23T15:36:55.401Z,59.50
2018-11-23T15:39:28.862Z,62.13
2018-11-23T15:42:02.722Z,59.33
2018-11-23T15:44:36.292Z,68.60
2018-11-23T15:47:09.973Z,69.93
2018-11-23T15:49:43.611Z,64.37
2018-11-23T15:52:17.358Z,58.73
2018-11-23T15:54:51.085Z,67.40
2018-11-23T15:57:24.987Z,66.57
2018-11-23T15:59:58.777Z,60.20
2018-11-23T16:02:32.585Z,59.13
2018-11-23T16:05:06.931Z,65.07
2018-11-23T16:07:40.954Z,70.37
2018-11-23T16:10:22.074Z,72.47
2018-11-23T16:12:57.639Z,70.10
2018-11-23T16:15:31.405Z,68.50
2018-11-23T16:18:05.602Z,62.87
2018-11-23T16:20:41.310Z,63.83
2018-11-23T16:23:17.571Z,63.23
2018-11-23T16:25:51.998Z,66.97
2018-11-23T16:28:26.210Z,69.30
2018-11-23T16:30:59.941Z,78.00
2018-11-23T16:33:34.387Z,70.10
2018-11-23T16:36:08.719Z,65.57
2018-11-23T16:38:42.410Z,74.70
2018-11-23T16:41:16.112Z,72.40
2018-11-23T16:43:49.717Z,60.47
2018-11-23T16:46:24.164Z,65.90
2018-11-23T16:48:57.997Z,60.97
2018-11-23T16:51:32.214Z,62.83
2018-11-23T16:54:05.742Z,71.10
2018-11-23T16:56:43.910Z,68.50
2018-11-23T16:59:31.118Z,63.73
2018-11-23T17:02:04.489Z,73.30
2018-11-23T17:04:38.228Z,65.10
2018-11-23T17:07:12.970Z,68.73
2018-11-23T17:09:45.867Z,71.37
2018-11-23T17:12:19.630Z,67.53
2018-11-23T17:14:53.599Z,66.80
2018-11-23T17:17:26.982Z,68.00
2018-11-23T17:20:00.722Z,70.30
2018-11-23T17:22:34.319Z,69.07
2018-11-23T17:25:09.175Z,72.03
2018-11-23T17:27:43.348Z,67.70
2018-11-23T17:30:17.924Z,67.17
2018-11-23T17:32:51.802Z,65.53
2018-11-23T17:35:25.729Z,66.83
2018-11-23T17:37:59.176Z,68.87
2018-11-23T17:40:34.690Z,66.30
2018-11-23T17:43:08.748Z,64.97
2018-11-23T17:45:43.098Z,70.63
2018-11-23T17:48:16.810Z,64.40
2018-11-23T17:50:50.346Z,68.73
2018-11-23T17:53:23.903Z,70.13
2018-11-23T17:55:57.653Z,65.67
2018-11-23T17:58:31.447Z,71.63
2018-11-23T18:01:05.882Z,57.13
2018-11-23T18:03:40.023Z,67.63
2018-11-23T18:06:13.852Z,57.57
2018-11-23T18:08:47.526Z,64.70
2018-11-23T18:11:21.054Z,64.13
2018-11-23T18:13:54.863Z,60.80
2018-11-23T18:16:28.675Z,62.47
2018-11-23T18:19:02.838Z,61.23
2018-11-23T18:21:36.386Z,60.63
2018-11-23T18:24:10.003Z,66.10
2018-11-23T18:26:43.702Z,61.50
2018-11-23T18:29:17.454Z,60.37
2018-11-23T18:31:51.044Z,60.50
2018-11-23T18:34:24.797Z,63.67
2018-11-23T18:36:58.587Z,62.27
2018-11-23T18:39:32.312Z,66.93
2018-11-23T18:42:06.319Z,64.43
2018-11-23T18:44:40.082Z,65.07
2018-11-23T18:47:13.707Z,63.47
2018-11-23T18:49:47.346Z,76.90
2018-11-23T18:52:20.882Z,61.77
2018-11-23T18:54:54.794Z,67.87
2018-11-23T18:57:28.727Z,80.53
2018-11-23T19:00:03.084Z,71.53
2018-11-23T19:02:36.661Z,68.00
2018-11-23T19:05:14.536Z,64.23
2018-11-23T19:07:48.022Z,67.13
2018-11-23T19:10:22.057Z,72.73
2018-11-23T19:12:56.259Z,69.23
2018-11-23T19:15:30.016Z,67.80
2018-11-23T19:18:03.687Z,93.60
2018-11-23T19:20:37.234Z,68.33
2018-11-23T19:23:10.849Z,70.70
2018-11-23T19:25:44.544Z,67.00
2018-11-23T19:28:18.345Z,67.47
2018-11-23T19:30:51.736Z,75.20
2018-11-23T19:33:25.243Z,72.40
2018-11-23T19:35:58.538Z,69.50
2018-11-23T19:38:32.502Z,69.03
2018-11-23T19:41:06.202Z,69.37
2018-11-23T19:43:40.080Z,69.00
2018-11-23T19:46:13.592Z,75.00
2018-11-23T19:48:47.124Z,71.03
2018-11-23T19:51:20.846Z,69.60
2018-11-23T19:53:54.868Z,81.43
2018-11-23T19:56:29.463Z,66.67
2018-11-23T19:59:02.153Z,74.53
2018-11-23T20:01:35.935Z,70.23
2018-11-23T20:04:09.639Z,74.67
2018-11-23T20:06:43.339Z,78.23
2018-11-23T20:09:16.964Z,75.27
2018-11-23T20:11:50.709Z,86.83
2018-11-23T20:14:24.445Z,84.23
2018-11-23T20:16:58.226Z,72.03
2018-11-23T20:19:31.882Z,77.20
2018-11-23T20:22:05.436Z,80.27
2018-11-23T20:24:39.264Z,76.97
2018-11-23T20:27:12.977Z,82.87
2018-11-23T20:29:46.801Z,86.07
2018-11-23T20:32:20.357Z,97.47
2018-11-23T20:34:54.067Z,98.03
2018-11-23T20:37:27.773Z,97.57
2018-11-23T20:40:01.870Z,94.87
2018-11-23T20:42:35.609Z,97.53
2018-11-23T20:45:10.165Z,89.27
2018-11-23T20:47:43.909Z,86.80
2018-11-23T20:50:17.816Z,105.77
2018-11-23T20:52:52.084Z,89.47
2018-11-23T20:55:25.676Z,99.00
2018-11-23T20:57:59.228Z,109.97
2018-11-23T21:00:33.381Z,102.30
2018-11-23T21:03:07.545Z,100.90
2018-11-23T21:05:41.070Z,99.10
2018-11-23T21:08:15.016Z,99.67
2018-11-23T21:10:48.509Z,112.33
2018-11-23T21:13:22.377Z,111.73
2018-11-23T21:15:56.511Z,102.87
2018-11-23T21:18:30.238Z,109.27
2018-11-23T21:21:03.774Z,106.43
2018-11-23T21:23:37.319Z,101.33
2018-11-23T21:26:10.778Z,112.43
2018-11-23T21:28:44.481Z,107.13
2018-11-23T21:31:18.177Z,105.97
2018-11-23T21:33:51.807Z,125.03
2018-11-23T21:36:25.415Z,105.03
2018-11-23T21:38:59.097Z,106.50
2018-11-23T21:41:32.745Z,99.27
2018-11-23T21:44:06.690Z,105.40
2018-11-23T21:46:40.374Z,110.77
2018-11-23T21:49:14.023Z,98.27
2018-11-23T21:51:47.626Z,97.83
2018-11-23T21:54:22.414Z,104.47
2018-11-23T21:56:56.139Z,99.00
2018-11-23T21:59:29.650Z,113.77
2018-11-23T22:02:07.184Z,112.60
2018-11-23T22:04:37.395Z,103.53
2018-11-23T22:07:11.652Z,110.20
2018-11-23T22:09:45.274Z,107.57
2018-11-23T22:12:19.126Z,104.47
2018-11-23T22:14:53.006Z,97.50
2018-11-23T22:17:26.685Z,98.90
2018-11-23T22:20:00.558Z,108.80
2018-11-23T22:22:34.411Z,112.00
2018-11-23T22:25:13.314Z,100.00
2018-11-23T22:27:46.890Z,111.03
2018-11-23T22:30:23.575Z,107.40
2018-11-23T22:32:57.787Z,103.03
2018-11-23T22:35:31.918Z,109.83
2018-11-23T22:38:05.449Z,115.33
2018-11-23T22:40:39.010Z,111.63
2018-11-23T22:43:12.426Z,107.57
2018-11-23T22:45:46.083Z,109.27
2018-11-23T22:48:20.122Z,115.33
2018-11-23T22:50:54.116Z,113.53
2018-11-23T22:53:27.627Z,93.60
2018-11-23T22:56:01.283Z,106.50
2018-11-23T23:01:15.818Z,107.17
2018-11-23T23:03:49.714Z,84.80
2018-11-23T23:06:23.431Z,118.57
2018-11-23T23:08:57.202Z,113.80
2018-11-23T23:11:30.642Z,99.63
2018-11-23T23:14:04.730Z,110.57
2018-11-23T23:16:38.966Z,112.23
2018-11-23T23:19:12.694Z,112.13
2018-11-23T23:21:46.526Z,103.40
2018-11-23T23:24:20.151Z,117.67
2018-11-23T23:26:53.773Z,102.87
2018-11-23T23:29:27.439Z,116.80
2018-11-23T23:32:00.994Z,113.00
2018-11-23T23:34:34.726Z,106.53
2018-11-23T23:37:08.239Z,118.37
2018-11-23T23:39:41.670Z,111.77
2018-11-23T23:42:15.305Z,114.73
2018-11-23T23:44:49.181Z,108.83
2018-11-23T23:47:22.950Z,120.27
2018-11-23T23:49:56.483Z,120.57
2018-11-23T23:52:30.179Z,111.13
2018-11-23T23:55:04.870Z,116.90
2018-11-23T23:57:39.642Z,118.87
